Time;durP1;ratioP1;P1;durP2;ratioP2;P2;SDS_P1;SDS_P2;PMS_P1;PMS_P2;Temp;Humidity;BMP_temperature;BMP_pressure;BME280_temperature;BME280_humidity;BME280_pressure;Samples;Min_cycle;Max_cycle;Signal;HPM_P1;HPM_P2
2021/11/11 00:00:25;;;;;;;41.00;21.88;;;3.00;99.00;;;;;;5055149;28;20769;-79
2021/11/11 00:02:51;;;;;;;38.33;20.05;;;3.00;99.00;;;;;;5054733;28;20387;-80
2021/11/11 00:05:19;;;;;;;40.95;20.35;;;3.00;99.30;;;;;;5041015;28;20569;-79
2021/11/11 00:07:45;;;;;;;38.70;20.65;;;2.90;99.40;;;;;;5042941;28;20391;-78
2021/11/11 00:10:13;;;;;;;45.10;21.80;;;2.90;99.90;;;;;;5043168;28;20471;-79
2021/11/11 00:12:39;;;;;;;40.87;20.83;;;2.90;99.60;;;;;;5047670;28;20421;-78
2021/11/11 00:15:09;;;;;;;35.65;20.52;;;2.80;99.90;;;;;;5054137;28;20410;-80
2021/11/11 00:17:35;;;;;;;37.17;20.23;;;2.80;99.90;;;;;;5053393;28;20468;-80
2021/11/11 00:20:01;;;;;;;37.70;21.37;;;2.80;99.90;;;;;;5060329;28;20398;-79
2021/11/11 00:22:27;;;;;;;42.60;22.15;;;2.80;99.90;;;;;;5049597;28;20383;-80
2021/11/11 00:24:53;;;;;;;39.60;21.45;;;2.90;99.90;;;;;;5044870;28;20399;-80
2021/11/11 00:27:19;;;;;;;40.67;22.17;;;3.00;99.90;;;;;;5042281;28;20403;-77
2021/11/11 00:29:45;;;;;;;41.10;22.60;;;3.00;99.90;;;;;;5047522;28;20739;-78
2021/11/11 00:32:12;;;;;;;46.53;22.70;;;2.90;99.90;;;;;;5041506;28;20462;-77
2021/11/11 00:34:38;;;;;;;39.50;22.38;;;2.90;99.90;;;;;;5044502;28;20763;-78
2021/11/11 00:37:04;;;;;;;42.20;23.10;;;3.00;99.90;;;;;;5047864;28;20466;-78
2021/11/11 00:39:30;;;;;;;39.13;22.27;;;3.10;99.90;;;;;;5031649;28;20949;-79
2021/11/11 00:41:55;;;;;;;35.63;20.77;;;3.10;99.90;;;;;;5033636;28;20405;-77
2021/11/11 00:44:21;;;;;;;45.90;22.95;;;3.10;99.90;;;;;;5033356;28;20390;-77
2021/11/11 00:46:48;;;;;;;41.53;21.30;;;3.20;99.90;;;;;;5041276;28;20402;-76
2021/11/11 00:49:14;;;;;;;44.92;21.70;;;3.20;99.90;;;;;;5053351;28;20413;-77
2021/11/11 00:51:40;;;;;;;43.53;22.75;;;3.20;99.90;;;;;;5033834;28;20391;-79
2021/11/11 00:54:06;;;;;;;42.35;22.00;;;3.20;99.90;;;;;;5032695;28;20783;-77
2021/11/11 00:56:33;;;;;;;41.53;22.20;;;3.20;99.90;;;;;;5032224;28;20448;-76
2021/11/11 00:58:59;;;;;;;38.92;21.70;;;3.30;99.90;;;;;;5040326;28;20486;-78
2021/11/11 01:01:28;;;;;;;40.78;22.00;;;3.20;99.90;;;;;;5041713;28;20394;-78
2021/11/11 01:03:55;;;;;;;41.08;22.15;;;3.20;99.90;;;;;;5032507;28;20441;-78
2021/11/11 01:06:21;;;;;;;40.28;21.13;;;3.20;99.90;;;;;;5031127;28;20418;-79
2021/11/11 01:08:48;;;;;;;45.10;23.05;;;3.20;99.90;;;;;;5040688;28;20383;-77
2021/11/11 01:11:16;;;;;;;43.83;22.00;;;3.20;99.90;;;;;;5031847;28;20395;-76
2021/11/11 01:13:41;;;;;;;44.13;21.90;;;3.30;99.90;;;;;;5032462;28;20398;-77
2021/11/11 01:16:07;;;;;;;40.33;21.70;;;3.30;99.90;;;;;;5029608;28;20407;-77
2021/11/11 01:18:33;;;;;;;44.50;23.13;;;3.30;99.90;;;;;;5038886;28;20406;-76
2021/11/11 01:20:59;;;;;;;46.40;22.73;;;3.30;99.90;;;;;;5034901;28;21356;-76
2021/11/11 01:23:26;;;;;;;39.90;21.75;;;3.40;99.90;;;;;;5033272;28;20395;-78
2021/11/11 01:25:51;;;;;;;47.17;23.05;;;3.30;99.90;;;;;;5027879;28;20754;-78
2021/11/11 01:28:17;;;;;;;46.22;23.50;;;3.20;99.90;;;;;;5050695;28;20386;-78
2021/11/11 01:30:44;;;;;;;47.20;23.75;;;3.20;99.90;;;;;;5040315;28;20914;-78
2021/11/11 01:33:11;;;;;;;42.88;22.02;;;3.20;99.90;;;;;;5049960;28;20439;-79
2021/11/11 01:35:38;;;;;;;42.60;22.58;;;3.20;99.90;;;;;;5034715;28;20756;-80
2021/11/11 01:38:04;;;;;;;39.55;23.02;;;3.20;99.90;;;;;;5031048;28;20387;-75
2021/11/11 01:40:31;;;;;;;45.85;24.17;;;3.10;99.90;;;;;;5039137;28;20418;-76
2021/11/11 01:42:59;;;;;;;48.83;23.30;;;3.10;99.90;;;;;;5045730;28;20389;-77
2021/11/11 01:45:28;;;;;;;43.97;22.33;;;3.10;99.90;;;;;;5048356;28;20748;-76
2021/11/11 01:47:54;;;;;;;49.85;24.02;;;3.10;99.90;;;;;;5032245;28;20390;-74
2021/11/11 01:50:20;;;;;;;41.70;23.13;;;3.00;99.90;;;;;;5040859;28;20441;-77
2021/11/11 01:52:45;;;;;;;46.10;23.33;;;3.00;99.90;;;;;;5045629;28;20413;-77
2021/11/11 01:55:12;;;;;;;39.38;22.10;;;2.90;99.90;;;;;;5051299;28;20385;-76
2021/11/11 01:57:38;;;;;;;44.50;22.08;;;2.90;99.90;;;;;;5051349;28;20896;-76
2021/11/11 02:00:09;;;;;;;44.60;22.27;;;2.90;99.90;;;;;;5038676;28;20415;-76
2021/11/11 02:02:35;;;;;;;37.67;21.88;;;2.90;99.90;;;;;;5033002;28;20402;-75
2021/11/11 02:05:01;;;;;;;42.73;21.17;;;2.80;99.90;;;;;;5033448;28;20748;-76
2021/11/11 02:07:26;;;;;;;40.47;20.60;;;2.80;99.90;;;;;;5030410;28;20375;-76
2021/11/11 02:09:52;;;;;;;40.15;21.40;;;2.80;99.90;;;;;;5032609;28;20497;-76
2021/11/11 02:12:18;;;;;;;39.90;22.40;;;2.70;99.90;;;;;;5043021;28;20739;-76
2021/11/11 02:14:44;;;;;;;45.30;23.13;;;2.70;99.90;;;;;;5052657;28;20385;-77
2021/11/11 02:17:09;;;;;;;36.30;21.33;;;2.60;99.90;;;;;;5036756;28;20896;-75
2021/11/11 02:19:35;;;;;;;36.70;22.05;;;2.70;99.90;;;;;;5030874;28;20414;-75
2021/11/11 02:22:03;;;;;;;43.47;22.70;;;2.70;99.90;;;;;;5030333;28;20404;-76
2021/11/11 02:24:32;;;;;;;41.35;21.13;;;2.60;99.90;;;;;;5030989;28;20458;-76
2021/11/11 02:26:57;;;;;;;40.38;21.35;;;2.60;99.90;;;;;;5040352;28;20376;-77
2021/11/11 02:29:23;;;;;;;46.27;22.60;;;2.50;99.90;;;;;;5031669;28;20409;-76
2021/11/11 02:31:49;;;;;;;37.28;21.15;;;2.60;99.90;;;;;;5045182;28;20397;-74
2021/11/11 02:34:19;;;;;;;40.10;20.50;;;2.60;99.90;;;;;;5047247;28;20420;-76
2021/11/11 02:37:03;;;;;;;43.35;21.88;;;2.50;99.90;;;;;;5046111;28;20464;-74
2021/11/11 02:39:30;;;;;;;42.38;22.70;;;2.60;99.90;;;;;;5039025;28;20408;-75
2021/11/11 02:41:57;;;;;;;43.25;23.02;;;2.50;99.90;;;;;;5050786;28;20400;-75
2021/11/11 02:44:22;;;;;;;44.57;22.30;;;2.60;99.90;;;;;;5041565;28;20391;-76
2021/11/11 02:46:48;;;;;;;40.47;22.88;;;2.60;99.90;;;;;;5039682;28;20419;-74
2021/11/11 02:49:14;;;;;;;40.33;21.05;;;2.70;99.90;;;;;;5041762;28;20389;-76
2021/11/11 02:51:39;;;;;;;40.03;21.25;;;2.70;99.90;;;;;;5050880;28;20400;-74
2021/11/11 02:54:05;;;;;;;39.73;21.33;;;2.60;99.90;;;;;;5038480;28;20438;-76
2021/11/11 02:56:30;;;;;;;42.00;21.93;;;2.60;99.90;;;;;;5039380;28;20407;-75
2021/11/11 02:58:57;;;;;;;40.60;22.80;;;2.60;99.90;;;;;;5047063;28;20415;-75
2021/11/11 03:01:22;;;;;;;37.97;21.08;;;2.50;99.90;;;;;;5039650;28;20385;-75
2021/11/11 03:03:48;;;;;;;41.80;22.42;;;2.50;99.90;;;;;;5018718;28;20393;-76
2021/11/11 03:06:14;;;;;;;44.47;22.67;;;2.50;99.90;;;;;;5018955;28;20393;-74
2021/11/11 03:08:40;;;;;;;35.25;20.70;;;2.50;99.90;;;;;;5033297;28;20397;-75
2021/11/11 03:11:06;;;;;;;45.03;21.85;;;2.40;99.90;;;;;;5052135;28;20641;-75
2021/11/11 03:13:32;;;;;;;41.50;21.60;;;2.40;99.90;;;;;;5055332;28;20454;-74
2021/11/11 03:15:58;;;;;;;44.10;21.50;;;2.40;99.90;;;;;;5055294;28;20419;-76
2021/11/11 03:18:24;;;;;;;38.67;21.60;;;2.60;99.90;;;;;;5040253;28;20412;-76
2021/11/11 03:20:51;;;;;;;38.35;21.08;;;2.60;99.90;;;;;;5062119;22;20517;-76
2021/11/11 03:23:16;;;;;;;48.95;23.17;;;2.50;99.90;;;;;;5053352;28;20463;-76
2021/11/11 03:25:43;;;;;;;42.10;22.70;;;2.50;99.90;;;;;;5052437;28;20419;-77
2021/11/11 03:28:09;;;;;;;42.10;22.48;;;2.60;99.90;;;;;;5031029;28;20408;-78
2021/11/11 03:30:36;;;;;;;35.83;21.10;;;2.60;99.90;;;;;;5036808;28;20473;-78
2021/11/11 03:33:03;;;;;;;46.88;22.55;;;2.60;99.90;;;;;;5035939;28;20405;-77
2021/11/11 03:35:29;;;;;;;41.13;21.42;;;2.60;99.90;;;;;;5049539;28;20458;-78
2021/11/11 03:37:57;;;;;;;46.15;22.73;;;2.60;99.90;;;;;;5047508;28;20405;-77
2021/11/11 03:40:26;;;;;;;46.38;23.02;;;2.60;99.90;;;;;;5040657;28;20497;-76
2021/11/11 03:42:53;;;;;;;41.20;22.65;;;2.60;99.90;;;;;;5044333;28;20968;-77
2021/11/11 03:45:20;;;;;;;39.88;22.00;;;2.60;99.90;;;;;;5039550;28;20408;-77
2021/11/11 03:47:48;;;;;;;41.03;22.65;;;2.50;99.90;;;;;;5049492;28;20440;-77
2021/11/11 03:50:15;;;;;;;38.90;21.90;;;2.60;99.90;;;;;;5032799;28;20411;-77
2021/11/11 03:52:40;;;;;;;38.95;21.65;;;2.60;99.90;;;;;;5045357;28;20477;-77
2021/11/11 03:55:08;;;;;;;42.10;22.33;;;2.60;99.90;;;;;;5040658;28;20474;-78
2021/11/11 03:57:34;;;;;;;43.15;22.33;;;2.70;99.90;;;;;;5044133;28;20760;-77
2021/11/11 04:00:00;;;;;;;36.50;22.13;;;2.60;99.90;;;;;;5044367;28;20401;-76
2021/11/11 04:02:26;;;;;;;39.45;21.95;;;2.60;99.90;;;;;;5033918;28;20395;-78
2021/11/11 04:04:53;;;;;;;43.97;22.40;;;2.60;99.90;;;;;;5031357;28;20383;-77
2021/11/11 04:07:19;;;;;;;38.63;22.63;;;2.60;99.90;;;;;;5034462;28;20395;-77
2021/11/11 04:09:45;;;;;;;52.53;22.70;;;2.60;99.90;;;;;;5041725;28;20401;-77
2021/11/11 04:12:12;;;;;;;47.35;23.38;;;2.60;99.90;;;;;;5055504;28;20389;-77
2021/11/11 04:14:38;;;;;;;43.50;22.23;;;2.60;99.90;;;;;;5054407;28;20392;-77
2021/11/11 04:17:03;;;;;;;44.85;23.38;;;2.50;99.90;;;;;;5041217;28;20478;-76
2021/11/11 04:19:29;;;;;;;36.30;21.90;;;2.50;99.90;;;;;;5040886;28;20520;-77
2021/11/11 04:21:55;;;;;;;43.92;22.40;;;2.50;99.90;;;;;;5041809;28;20753;-78
2021/11/11 04:24:20;;;;;;;42.08;23.38;;;2.40;99.90;;;;;;5032287;28;20379;-77
2021/11/11 04:26:53;;;;;;;42.50;21.90;;;2.40;99.90;;;;;;5031175;28;20891;-77
2021/11/11 04:29:22;;;;;;;38.63;22.37;;;2.40;99.90;;;;;;5032064;28;20409;-77
2021/11/11 04:31:56;;;;;;;45.67;22.88;;;2.40;99.90;;;;;;5034410;28;20395;-77
2021/11/11 04:34:22;;;;;;;44.45;22.48;;;2.40;99.90;;;;;;5036734;28;20410;-77
2021/11/11 04:47:30;;;;;;;45.43;24.23;;;2.30;99.90;;;;;;5043421;28;20913;-78
2021/11/11 05:03:34;;;;;;;46.72;24.00;;;2.40;99.90;;;;;;5030831;28;20500;-78
2021/11/11 05:06:01;;;;;;;38.30;22.60;;;2.30;99.90;;;;;;5024324;28;20409;-77
2021/11/11 05:08:28;;;;;;;42.53;23.23;;;2.30;99.90;;;;;;5011766;28;20543;-78
2021/11/11 05:10:54;;;;;;;48.40;23.47;;;2.20;99.90;;;;;;5011735;28;20385;-78
2021/11/11 05:13:19;;;;;;;41.53;22.92;;;2.20;99.90;;;;;;5013744;28;20400;-78
2021/11/11 05:15:45;;;;;;;54.50;24.10;;;2.20;99.90;;;;;;5015270;28;20385;-78
2021/11/11 05:18:11;;;;;;;46.38;24.67;;;2.20;99.90;;;;;;5033663;28;20422;-75
2021/11/11 05:20:37;;;;;;;49.65;23.98;;;2.20;99.90;;;;;;5040145;28;20418;-77
2021/11/11 05:23:03;;;;;;;45.67;24.00;;;2.20;99.90;;;;;;5031247;28;20383;-77
2021/11/11 05:25:28;;;;;;;47.45;23.80;;;2.20;99.90;;;;;;5031147;28;20461;-77
2021/11/11 05:27:54;;;;;;;46.37;23.13;;;2.30;99.90;;;;;;5031213;28;20375;-77
2021/11/11 05:30:20;;;;;;;44.03;23.63;;;2.30;99.90;;;;;;5029907;28;20438;-77
2021/11/11 05:32:47;;;;;;;56.37;25.17;;;2.30;99.90;;;;;;5038215;28;20399;-81
2021/11/11 05:35:13;;;;;;;43.50;23.42;;;2.30;99.90;;;;;;5052629;28;20440;-82
2021/11/11 05:37:42;;;;;;;46.38;24.10;;;2.30;99.90;;;;;;5040133;28;20982;-78
2021/11/11 05:40:09;;;;;;;41.55;24.05;;;2.30;99.90;;;;;;5053805;28;20437;-80
2021/11/11 05:42:35;;;;;;;45.85;23.85;;;2.30;99.90;;;;;;5044793;28;20401;-81
2021/11/11 05:45:01;;;;;;;45.63;23.48;;;2.30;99.90;;;;;;5052152;28;20470;-79
2021/11/11 05:47:27;;;;;;;42.35;23.33;;;2.30;99.90;;;;;;5042764;28;20785;-80
2021/11/11 05:49:52;;;;;;;37.97;22.33;;;2.40;99.90;;;;;;5044517;28;20405;-80
2021/11/11 05:52:18;;;;;;;39.05;22.50;;;2.30;99.90;;;;;;5047205;28;20426;-82
2021/11/11 05:54:44;;;;;;;40.97;23.33;;;2.30;99.90;;;;;;5043338;28;20399;-80
2021/11/11 05:57:10;;;;;;;39.15;23.30;;;2.30;99.90;;;;;;5057621;28;20450;-78
2021/11/11 05:59:39;;;;;;;39.17;24.00;;;2.40;99.90;;;;;;5071233;28;20468;-80
2021/11/11 06:02:11;;;;;;;41.78;23.13;;;2.40;99.90;;;;;;5051530;28;20402;-80
2021/11/11 06:04:38;;;;;;;42.17;23.90;;;2.40;99.90;;;;;;5046806;28;20395;-80
2021/11/11 06:07:04;;;;;;;50.38;24.23;;;2.40;99.90;;;;;;5046707;28;20426;-80
2021/11/11 06:09:29;;;;;;;43.92;22.88;;;2.40;99.90;;;;;;5036526;28;20402;-81
2021/11/11 06:11:55;;;;;;;44.63;23.45;;;2.40;99.90;;;;;;5046796;28;20391;-79
2021/11/11 06:14:21;;;;;;;41.23;23.80;;;2.40;99.80;;;;;;5048611;28;20424;-81
2021/11/11 06:16:47;;;;;;;43.05;23.40;;;2.40;99.90;;;;;;5052593;28;20397;-80
2021/11/11 06:19:14;;;;;;;38.60;21.60;;;2.40;99.70;;;;;;5060623;28;20499;-80
2021/11/11 06:21:40;;;;;;;46.53;23.43;;;2.40;99.40;;;;;;5049218;28;20395;-79
2021/11/11 06:24:06;;;;;;;37.38;21.67;;;2.30;99.30;;;;;;5051538;28;20416;-78
2021/11/11 06:26:32;;;;;;;40.40;21.10;;;2.30;98.60;;;;;;5050978;28;20416;-79
2021/11/11 06:28:59;;;;;;;41.20;21.73;;;2.30;98.80;;;;;;5067699;28;20433;-78
2021/11/11 06:31:25;;;;;;;43.80;21.92;;;2.30;97.90;;;;;;5070232;28;20850;-81
2021/11/11 06:33:50;;;;;;;40.70;22.00;;;2.30;97.50;;;;;;5055709;28;20406;-80
2021/11/11 06:36:16;;;;;;;46.03;23.02;;;2.20;97.70;;;;;;5047503;28;20419;-78
2021/11/11 06:38:42;;;;;;;38.45;21.50;;;2.20;97.90;;;;;;5035236;28;20419;-78
2021/11/11 06:41:08;;;;;;;38.85;20.55;;;2.20;97.80;;;;;;5042972;28;20461;-78
2021/11/11 06:43:34;;;;;;;45.63;23.40;;;2.20;98.40;;;;;;5050127;28;20414;-77
2021/11/11 06:46:00;;;;;;;41.70;22.75;;;2.20;98.30;;;;;;5035620;28;20400;-78
2021/11/11 06:48:26;;;;;;;35.17;21.20;;;2.20;97.90;;;;;;5037236;28;20394;-79
2021/11/11 06:50:52;;;;;;;38.60;21.38;;;2.20;98.60;;;;;;5039375;28;20458;-79
2021/11/11 06:53:19;;;;;;;36.27;21.30;;;2.20;98.90;;;;;;5047913;28;20477;-77
2021/11/11 06:55:46;;;;;;;38.90;21.23;;;2.30;99.20;;;;;;5045133;28;20770;-78
2021/11/11 06:58:13;;;;;;;41.53;23.05;;;2.20;99.70;;;;;;5025310;28;20405;-78
2021/11/11 07:00:40;;;;;;;40.60;22.73;;;2.20;99.60;;;;;;5022055;28;20410;-79
2021/11/11 07:03:06;;;;;;;42.63;24.00;;;2.30;99.90;;;;;;5050987;28;20414;-78
2021/11/11 07:05:32;;;;;;;42.58;23.42;;;2.30;99.90;;;;;;5049139;28;20387;-78
2021/11/11 07:07:58;;;;;;;41.77;21.97;;;2.30;99.90;;;;;;5043693;28;20453;-79
2021/11/11 07:10:24;;;;;;;37.25;21.83;;;2.40;99.30;;;;;;5032587;28;20449;-78
2021/11/11 07:12:51;;;;;;;43.75;22.23;;;2.50;97.70;;;;;;5039121;28;20402;-79
2021/11/11 07:15:17;;;;;;;46.65;22.75;;;2.50;96.70;;;;;;5048623;28;20410;-78
2021/11/11 07:17:46;;;;;;;40.00;22.05;;;2.50;96.60;;;;;;5041662;28;20395;-79
2021/11/11 07:20:14;;;;;;;41.85;23.98;;;2.60;96.30;;;;;;5037679;28;20406;-78
2021/11/11 07:22:43;;;;;;;48.45;23.80;;;2.60;95.30;;;;;;5041553;28;20428;-80
2021/11/11 07:25:09;;;;;;;45.80;22.30;;;2.50;95.80;;;;;;5032679;28;20471;-79
2021/11/11 07:27:36;;;;;;;55.95;23.48;;;2.60;96.30;;;;;;5020534;28;20391;-78
2021/11/11 07:30:07;;;;;;;40.85;23.48;;;2.60;96.20;;;;;;5035111;28;20472;-78
2021/11/11 07:32:33;;;;;;;48.10;23.70;;;2.60;95.80;;;;;;5039244;28;20629;-78
2021/11/11 07:34:59;;;;;;;42.13;23.13;;;2.60;95.00;;;;;;5035351;28;20414;-78
2021/11/11 07:37:24;;;;;;;41.97;23.27;;;2.80;93.30;;;;;;5030425;28;20466;-78
2021/11/11 07:39:53;;;;;;;43.67;22.65;;;2.80;93.40;;;;;;5037509;28;20418;-78
2021/11/11 07:42:22;;;;;;;43.75;22.05;;;2.90;92.40;;;;;;5032010;28;20486;-77
2021/11/11 07:44:48;;;;;;;42.05;22.85;;;2.80;92.40;;;;;;5040158;28;20406;-79
2021/11/11 07:47:17;;;;;;;40.70;22.70;;;2.80;92.40;;;;;;5035725;28;20442;-79
2021/11/11 07:49:42;;;;;;;45.20;23.07;;;2.90;92.90;;;;;;5032564;28;20798;-79
2021/11/11 07:52:10;;;;;;;43.15;22.90;;;2.90;91.00;;;;;;5027924;28;20470;-78
2021/11/11 07:54:35;;;;;;;42.88;22.50;;;3.00;90.40;;;;;;5038943;28;20458;-78
2021/11/11 07:57:01;;;;;;;42.15;22.13;;;3.00;88.30;;;;;;5033793;28;20854;-78
2021/11/11 07:59:27;;;;;;;40.47;22.30;;;3.10;87.90;;;;;;5057382;28;20420;-78
2021/11/11 08:01:53;;;;;;;44.20;23.90;;;3.10;85.50;;;;;;5025823;28;20508;-75
2021/11/11 08:04:19;;;;;;;57.90;24.20;;;3.20;86.10;;;;;;5031885;28;20417;-75
2021/11/11 08:06:45;;;;;;;51.28;24.77;;;3.20;83.80;;;;;;5032318;28;20421;-75
2021/11/11 08:09:11;;;;;;;41.78;23.15;;;3.20;85.30;;;;;;5035697;28;20781;-76
2021/11/11 08:11:37;;;;;;;48.80;22.90;;;3.30;83.60;;;;;;5032949;28;20418;-77
2021/11/11 08:14:05;;;;;;;46.15;22.90;;;3.30;84.70;;;;;;5031404;28;20464;-76
2021/11/11 08:16:31;;;;;;;40.75;21.85;;;3.30;83.80;;;;;;5044050;28;20379;-78
2021/11/11 08:18:59;;;;;;;42.08;21.40;;;3.30;80.80;;;;;;5034157;28;20498;-78
2021/11/11 08:21:25;;;;;;;42.28;22.38;;;3.40;77.40;;;;;;5037706;28;20450;-77
2021/11/11 08:23:50;;;;;;;43.67;22.43;;;3.40;78.70;;;;;;5026691;28;20727;-78
2021/11/11 08:26:16;;;;;;;38.58;21.48;;;3.40;78.70;;;;;;5043828;28;20395;-78
2021/11/11 08:28:41;;;;;;;42.22;23.63;;;3.50;77.50;;;;;;5043054;28;20393;-77
2021/11/11 08:31:07;;;;;;;47.28;22.73;;;3.50;77.50;;;;;;5042743;28;20418;-77
2021/11/11 08:33:33;;;;;;;40.70;21.77;;;3.40;76.60;;;;;;5050116;28;20407;-78
2021/11/11 08:35:59;;;;;;;38.93;23.10;;;3.50;78.30;;;;;;5044638;28;20799;-77
2021/11/11 08:38:27;;;;;;;44.88;21.83;;;3.50;77.80;;;;;;5052177;28;20470;-76
2021/11/11 08:40:56;;;;;;;42.33;21.92;;;3.70;74.60;;;;;;5044160;28;20425;-80
2021/11/11 08:43:22;;;;;;;45.08;22.73;;;3.70;75.10;;;;;;5043465;28;20395;-79
2021/11/11 08:45:49;;;;;;;42.28;21.80;;;3.80;71.80;;;;;;5041682;28;20776;-78
2021/11/11 08:48:16;;;;;;;42.97;22.80;;;3.80;72.30;;;;;;5039071;28;20464;-78
2021/11/11 08:50:42;;;;;;;53.75;23.17;;;3.90;71.10;;;;;;5029783;28;20389;-79
2021/11/11 08:53:10;;;;;;;39.35;21.98;;;3.90;70.10;;;;;;5027024;28;20407;-78
2021/11/11 08:55:36;;;;;;;43.60;23.10;;;3.90;67.90;;;;;;5036348;28;20882;-78
2021/11/11 08:58:04;;;;;;;40.10;22.15;;;4.20;69.10;;;;;;5038002;28;20456;-77
2021/11/11 09:00:32;;;;;;;44.58;21.83;;;4.90;66.80;;;;;;5045139;28;20422;-77
2021/11/11 09:03:00;;;;;;;38.90;21.10;;;5.80;56.30;;;;;;5040510;28;20399;-78
2021/11/11 09:05:31;;;;;;;37.22;21.60;;;6.30;50.00;;;;;;5041610;28;20379;-78
2021/11/11 09:07:58;;;;;;;38.47;21.05;;;6.50;48.00;;;;;;5041960;28;20403;-78
2021/11/11 09:10:24;;;;;;;40.17;21.13;;;6.40;46.40;;;;;;5036302;28;20403;-80
2021/11/11 09:12:53;;;;;;;34.40;20.92;;;6.00;47.50;;;;;;5048487;28;20447;-79
2021/11/11 09:15:23;;;;;;;38.25;21.83;;;5.60;49.30;;;;;;5055031;28;20397;-76
2021/11/11 09:17:50;;;;;;;35.20;20.70;;;5.40;50.70;;;;;;5041657;28;20399;-80
2021/11/11 09:20:18;;;;;;;36.78;21.60;;;5.20;51.70;;;;;;5032658;28;20413;-78
2021/11/11 09:22:45;;;;;;;35.25;21.92;;;5.20;53.50;;;;;;5038194;28;20395;-77
2021/11/11 09:25:12;;;;;;;41.90;22.70;;;5.20;54.70;;;;;;5044224;28;20418;-78
2021/11/11 09:27:39;;;;;;;42.00;23.27;;;5.20;54.50;;;;;;5042883;28;20393;-79
2021/11/11 09:30:09;;;;;;;43.05;24.17;;;5.20;55.30;;;;;;5038203;28;20899;-78
2021/11/11 09:32:35;;;;;;;42.40;22.60;;;5.20;56.00;;;;;;5031157;28;20408;-78
2021/11/11 09:35:02;;;;;;;42.78;23.33;;;5.20;56.00;;;;;;5057405;28;20393;-77
2021/11/11 09:37:28;;;;;;;49.80;24.67;;;5.30;56.50;;;;;;5030096;28;20436;-78
2021/11/11 09:39:53;;;;;;;39.37;23.27;;;5.30;56.30;;;;;;5036754;28;20776;-78
2021/11/11 09:42:20;;;;;;;42.05;23.30;;;5.40;56.00;;;;;;5030620;28;20731;-77
2021/11/11 09:44:47;;;;;;;45.85;23.88;;;5.60;56.30;;;;;;5019452;28;20748;-78
2021/11/11 09:47:13;;;;;;;49.15;24.95;;;5.60;56.10;;;;;;5032446;28;20403;-78
2021/11/11 09:49:38;;;;;;;39.70;24.00;;;5.60;54.30;;;;;;5036297;28;20402;-77
2021/11/11 09:52:04;;;;;;;47.07;23.80;;;5.60;54.60;;;;;;5020952;28;20397;-77
2021/11/11 09:59:42;;;;;;;45.55;24.48;;;5.90;54.50;;;;;;5026195;28;20412;-77
2021/11/11 10:02:09;;;;;;;45.58;23.92;;;6.00;52.20;;;;;;5025317;28;20406;-77
2021/11/11 10:04:37;;;;;;;47.05;24.55;;;5.90;53.50;;;;;;5015621;28;20394;-77
2021/11/11 10:07:03;;;;;;;45.58;24.02;;;6.00;54.90;;;;;;5026290;28;20406;-79
2021/11/11 10:09:29;;;;;;;43.28;24.73;;;6.00;54.40;;;;;;5027574;28;21093;-78
2021/11/11 10:11:58;;;;;;;41.20;24.80;;;6.10;53.10;;;;;;5034383;28;20430;-79
2021/11/11 10:14:31;;;;;;;44.53;25.95;;;6.10;52.10;;;;;;5035959;28;20402;-78
2021/11/11 10:16:56;;;;;;;48.25;26.30;;;6.10;53.70;;;;;;5025592;28;20519;-78
2021/11/11 10:19:24;;;;;;;51.70;27.23;;;6.30;52.90;;;;;;5036114;28;20410;-79
2021/11/11 10:22:05;;;;;;;49.63;27.52;;;6.30;52.60;;;;;;5030431;28;20438;-74
2021/11/11 10:24:52;;;;;;;51.17;27.07;;;6.30;53.10;;;;;;5029892;28;20395;-76
2021/11/11 10:30:08;;;;;;;51.50;27.05;;;6.60;52.00;;;;;;5025529;28;20890;-77
2021/11/11 10:32:58;;;;;;;51.28;27.42;;;6.60;51.00;;;;;;5013553;28;20909;-77
2021/11/11 10:35:32;;;;;;;65.32;27.55;;;6.60;51.30;;;;;;5031664;28;20438;-78
2021/11/11 10:38:03;;;;;;;50.50;26.53;;;6.60;51.40;;;;;;5050377;28;20401;-76
2021/11/11 10:40:32;;;;;;;47.22;25.70;;;6.60;53.10;;;;;;5026289;28;20837;-77
2021/11/11 10:43:03;;;;;;;55.15;27.48;;;6.70;53.20;;;;;;5019779;28;20385;-77
2021/11/11 10:45:33;;;;;;;49.75;27.15;;;6.70;52.00;;;;;;5017693;28;20858;-77
2021/11/11 10:48:03;;;;;;;52.10;26.73;;;6.80;52.10;;;;;;5027830;28;20396;-79
2021/11/11 10:50:32;;;;;;;44.00;26.00;;;7.10;49.20;;;;;;5032539;28;20495;-77
2021/11/11 10:53:07;;;;;;;47.10;27.08;;;7.20;48.60;;;;;;5015468;28;20420;-79
2021/11/11 10:55:33;;;;;;;50.75;27.27;;;7.20;48.70;;;;;;5032784;28;20404;-77
2021/11/11 10:58:06;;;;;;;47.45;27.13;;;7.20;49.10;;;;;;5042621;28;20513;-76
2021/11/11 11:00:36;;;;;;;51.33;27.92;;;7.30;48.70;;;;;;5035057;28;20434;-77
2021/11/11 11:03:35;;;;;;;55.95;27.67;;;7.30;48.30;;;;;;5030082;28;20391;-76
2021/11/11 11:06:05;;;;;;;53.80;28.20;;;7.30;49.00;;;;;;5030311;28;20750;-77
2021/11/11 11:08:30;;;;;;;52.70;28.20;;;7.40;48.70;;;;;;5023297;28;20382;-77
2021/11/11 11:10:59;;;;;;;53.63;28.43;;;7.50;48.70;;;;;;5027740;28;20399;-77
2021/11/11 11:13:29;;;;;;;49.17;27.87;;;7.50;48.70;;;;;;5023858;28;20442;-77
2021/11/11 11:16:15;;;;;;;53.07;28.40;;;7.60;48.10;;;;;;5041714;28;20431;-78
2021/11/11 11:18:43;;;;;;;54.35;29.05;;;7.70;47.80;;;;;;5053974;28;20382;-78
2021/11/11 11:21:40;;;;;;;51.80;29.23;;;7.90;46.30;;;;;;5057646;28;20416;-77
2021/11/11 11:24:27;;;;;;;66.20;34.10;;;7.80;46.30;;;;;;5035740;28;20479;-77
2021/11/11 11:26:57;;;;;;;73.67;35.03;;;7.90;47.00;;;;;;5035861;28;20456;-77
2021/11/11 11:29:29;;;;;;;78.65;35.92;;;7.90;47.30;;;;;;5036330;28;20446;-77
2021/11/11 11:34:46;;;;;;;72.93;35.80;;;7.90;48.30;;;;;;5040745;28;20445;-78
2021/11/11 11:37:20;;;;;;;68.00;36.65;;;8.10;47.70;;;;;;5035761;28;20407;-77
2021/11/11 11:39:59;;;;;;;78.80;36.92;;;8.20;46.30;;;;;;5038285;28;20414;-77
2021/11/11 11:42:33;;;;;;;71.50;36.13;;;8.30;46.80;;;;;;5037820;28;20798;-77
2021/11/11 11:45:21;;;;;;;73.43;37.92;;;8.20;46.50;;;;;;5036345;28;20403;-78
2021/11/11 11:48:06;;;;;;;72.80;36.33;;;8.20;46.70;;;;;;5036114;28;20423;-78
2021/11/11 11:50:38;;;;;;;68.97;35.00;;;8.30;46.20;;;;;;5035694;28;20384;-78
2021/11/11 11:53:07;;;;;;;78.90;36.72;;;8.30;46.50;;;;;;5041058;28;20403;-78
2021/11/11 11:55:40;;;;;;;72.68;37.47;;;8.40;45.90;;;;;;5043336;28;20395;-78
2021/11/11 12:09:09;;;;;;;69.70;37.75;;;8.50;45.30;;;;;;5029239;28;20443;-78
2021/11/11 12:14:44;;;;;;;70.78;37.88;;;9.00;43.20;;;;;;5039050;28;20409;-78
2021/11/11 12:34:34;;;;;;;82.13;39.95;;;11.10;33.90;;;;;;5040283;28;20397;-78
2021/11/11 12:40:16;;;;;;;77.90;39.67;;;11.10;33.20;;;;;;5019564;28;20418;-76
2021/11/11 12:42:55;;;;;;;80.53;40.03;;;11.00;33.50;;;;;;5041275;28;20399;-77
2021/11/11 12:45:30;;;;;;;72.63;39.60;;;11.00;33.90;;;;;;5051572;28;20445;-77
2021/11/11 12:47:59;;;;;;;82.32;40.67;;;11.00;33.60;;;;;;5035325;28;20399;-77
2021/11/11 12:50:32;;;;;;;82.28;41.00;;;11.00;33.90;;;;;;5036360;28;20398;-77
2021/11/11 12:53:47;;;;;;;80.13;40.53;;;11.10;34.00;;;;;;5032456;28;20424;-77
2021/11/11 12:56:25;;;;;;;78.13;39.80;;;11.20;33.00;;;;;;5030615;28;20474;-76
2021/11/11 12:59:02;;;;;;;178.80;101.03;;;11.20;32.90;;;;;;5032997;28;20452;-76
2021/11/11 13:01:47;;;;;;;117.82;63.60;;;11.20;34.90;;;;;;5030998;28;20414;-77
2021/11/11 13:04:17;;;;;;;94.27;47.93;;;11.20;33.80;;;;;;5017628;28;20407;-77
2021/11/11 13:06:58;;;;;;;124.82;63.42;;;11.20;33.60;;;;;;5030149;28;20391;-75
2021/11/11 13:09:33;;;;;;;262.95;142.30;;;11.30;34.20;;;;;;5022901;28;20435;-77
2021/11/11 13:12:05;;;;;;;128.73;67.47;;;11.40;34.90;;;;;;5029055;28;20403;-77
2021/11/11 13:14:55;;;;;;;92.85;49.63;;;11.60;33.50;;;;;;5025364;28;20395;-78
2021/11/11 13:17:24;;;;;;;242.15;137.27;;;11.60;33.80;;;;;;5024470;28;20877;-79
2021/11/11 13:19:59;;;;;;;277.13;146.40;;;11.60;34.60;;;;;;5035326;28;20399;-78
2021/11/11 13:22:41;;;;;;;123.43;64.95;;;11.80;34.00;;;;;;5025351;28;20471;-79
2021/11/11 13:25:25;;;;;;;72.80;39.13;;;11.90;34.00;;;;;;5021467;28;20563;-81
2021/11/11 15:16:57;;;;;;;95.45;44.45;;;10.10;38.80;;;;;;5040138;28;20402;-79
2021/11/11 16:27:55;;;;;;;90.38;43.50;;;9.90;40.50;;;;;;5044203;28;20445;-78
2021/11/11 16:30:22;;;;;;;95.70;42.92;;;9.90;41.30;;;;;;5044408;28;20919;-78
2021/11/11 16:32:52;;;;;;;104.22;46.00;;;9.80;41.70;;;;;;5039742;28;20391;-79
2021/11/11 16:35:22;;;;;;;95.43;44.63;;;9.80;42.20;;;;;;5046365;28;20417;-79
2021/11/11 16:37:48;;;;;;;95.43;45.28;;;9.80;42.50;;;;;;5048358;28;20495;-79
2021/11/11 16:40:16;;;;;;;101.25;46.55;;;9.90;42.10;;;;;;5039968;28;20413;-79
2021/11/11 16:42:42;;;;;;;98.53;44.58;;;9.80;42.60;;;;;;5032194;28;20391;-78
2021/11/11 16:45:08;;;;;;;91.80;43.25;;;9.80;42.80;;;;;;5040628;28;20397;-80
2021/11/11 16:47:34;;;;;;;96.53;45.03;;;9.80;43.70;;;;;;5029828;28;20398;-80